Terminal Aerodrome Forecast
Issued by NWS Sioux Falls, SD

Home | Current Version | Previous Version | Text Only | Print | Product List | Glossary On
Versions: 1 2 3 4 5 6 7 8 9 10 11 12 13
000
FTUS43 KFSD 012320
TAFFSD
TAF
KFSD 012320Z 0200/0224 31016G22KT P6SM SCT050 BKN100
     FM020100 33012KT P6SM SCT150
     FM021600 30017G25KT P6SM SCT200=

USA.gov is the U.S. government's official web portal to all federal, state and local government web resources and services.